Time;durP1;ratioP1;P1;durP2;ratioP2;P2;SDS_P1;SDS_P2;PMS_P1;PMS_P2;Temp;Humidity;BMP_temperature;BMP_pressure;BME280_temperature;BME280_humidity;BME280_pressure;Samples;Min_cycle;Max_cycle;Signal;HPM_P1;HPM_P2
2023/08/05 00:02:19;;;;;;;10.17;6.63;;;16.50;99.90;;;;;;5085942;28;20450;-75
2023/08/05 00:05:05;;;;;;;9.97;5.80;;;16.40;99.90;;;;;;5087127;28;20828;-75
2023/08/05 00:07:52;;;;;;;7.83;5.90;;;16.40;99.90;;;;;;5058058;28;20513;-75
2023/08/05 00:10:42;;;;;;;8.80;5.87;;;16.50;99.90;;;;;;5075390;28;20544;-75
2023/08/05 00:13:27;;;;;;;6.70;5.80;;;16.60;99.90;;;;;;5085166;28;20438;-75
2023/08/05 00:16:14;;;;;;;8.93;5.63;;;16.60;99.90;;;;;;5094051;28;20441;-75
2023/08/05 00:18:59;;;;;;;12.87;5.67;;;16.50;99.90;;;;;;5086188;28;20446;-74
2023/08/05 00:21:45;;;;;;;8.27;6.00;;;16.50;99.90;;;;;;5073679;28;20417;-75
2023/08/05 00:24:32;;;;;;;7.30;5.93;;;16.50;99.90;;;;;;5069479;28;20552;-75
2023/08/05 00:27:17;;;;;;;14.13;5.97;;;16.50;99.90;;;;;;5076739;28;20429;-74
2023/08/05 00:30:03;;;;;;;8.93;5.87;;;16.60;99.90;;;;;;5076287;28;20410;-75
2023/08/05 00:32:49;;;;;;;7.27;5.97;;;16.60;99.90;;;;;;5073719;28;20861;-75
2023/08/05 00:35:34;;;;;;;8.17;5.37;;;16.60;99.90;;;;;;5086054;28;20440;-75
2023/08/05 00:38:20;;;;;;;8.17;4.77;;;16.50;99.90;;;;;;5073312;28;20429;-75
2023/08/05 00:41:07;;;;;;;8.90;6.07;;;16.50;99.90;;;;;;5066582;28;20437;-75
2023/08/05 00:43:52;;;;;;;12.40;6.20;;;16.50;99.90;;;;;;5070602;28;20443;-75
2023/08/05 00:46:38;;;;;;;10.40;5.77;;;16.50;99.90;;;;;;5080507;28;20419;-74
2023/08/05 00:49:24;;;;;;;10.20;5.87;;;16.40;99.90;;;;;;5071370;28;20916;-75
2023/08/05 00:52:09;;;;;;;8.37;5.93;;;16.30;99.90;;;;;;5073350;28;20396;-75
2023/08/05 00:54:55;;;;;;;11.73;5.30;;;16.10;99.90;;;;;;5069626;28;20421;-75
2023/08/05 00:57:43;;;;;;;12.13;5.50;;;16.10;99.90;;;;;;5068242;28;20439;-75
2023/08/05 01:00:28;;;;;;;19.73;6.77;;;16.10;99.90;;;;;;5070455;28;20783;-74
2023/08/05 01:03:14;;;;;;;10.20;7.10;;;16.10;99.90;;;;;;5078048;28;20559;-75
2023/08/05 01:06:01;;;;;;;11.90;5.40;;;16.00;99.90;;;;;;5083808;28;20421;-75
2023/08/05 01:08:47;;;;;;;10.57;5.60;;;15.80;99.90;;;;;;5072881;28;20409;-74
2023/08/05 01:11:32;;;;;;;13.73;6.00;;;15.80;99.90;;;;;;5071627;28;20749;-75
2023/08/05 01:14:19;;;;;;;9.70;6.60;;;15.70;99.90;;;;;;5065881;28;20511;-74
2023/08/05 01:17:07;;;;;;;12.33;5.50;;;15.60;99.90;;;;;;5073159;28;20512;-75
2023/08/05 01:19:52;;;;;;;8.33;5.60;;;15.60;99.90;;;;;;5065746;28;20533;-75
2023/08/05 01:22:42;;;;;;;11.53;5.50;;;15.60;99.90;;;;;;5070501;28;20824;-75
2023/08/05 01:25:32;;;;;;;9.53;5.73;;;15.60;99.90;;;;;;5079099;28;20520;-74
2023/08/05 01:28:19;;;;;;;13.00;5.53;;;15.50;99.90;;;;;;5074597;28;20564;-75
2023/08/05 01:31:07;;;;;;;9.30;5.97;;;15.50;99.90;;;;;;5065765;28;20454;-75
2023/08/05 01:33:53;;;;;;;10.70;6.13;;;15.40;99.90;;;;;;5065737;28;20417;-75
2023/08/05 01:36:38;;;;;;;11.03;6.10;;;15.30;99.90;;;;;;5090032;28;20539;-75
2023/08/05 01:39:24;;;;;;;9.80;5.60;;;15.40;99.90;;;;;;5086300;28;20429;-75
2023/08/05 01:42:11;;;;;;;14.63;6.10;;;15.30;99.90;;;;;;5071465;28;20558;-75
2023/08/05 01:44:56;;;;;;;6.03;4.90;;;15.20;99.90;;;;;;5057778;28;20465;-75
2023/08/05 01:47:42;;;;;;;8.20;6.17;;;15.20;99.90;;;;;;5071823;28;20642;-75
2023/08/05 01:50:27;;;;;;;13.60;6.03;;;15.20;99.90;;;;;;5068479;28;20446;-75
2023/08/05 01:53:13;;;;;;;7.43;5.33;;;15.20;99.90;;;;;;5080293;28;20450;-75
2023/08/05 01:55:58;;;;;;;7.17;4.90;;;15.20;99.90;;;;;;5069410;28;20449;-75
2023/08/05 01:58:45;;;;;;;17.77;6.20;;;15.10;99.90;;;;;;5070541;28;20430;-75
2023/08/05 02:01:41;;;;;;;19.17;6.43;;;15.10;99.90;;;;;;5069451;28;20438;-75
2023/08/05 02:04:26;;;;;;;8.60;5.87;;;15.20;99.90;;;;;;5073529;28;20448;-75
2023/08/05 02:07:12;;;;;;;9.53;5.33;;;15.10;99.90;;;;;;5071487;28;20404;-74
2023/08/05 02:09:57;;;;;;;12.33;4.60;;;15.00;99.90;;;;;;5082079;28;20478;-74
2023/08/05 02:12:42;;;;;;;11.70;5.60;;;14.90;99.90;;;;;;5056118;28;20959;-75
2023/08/05 02:15:30;;;;;;;22.73;4.90;;;14.90;99.90;;;;;;5067160;28;20473;-74
2023/08/05 02:18:15;;;;;;;6.37;5.53;;;14.90;99.90;;;;;;5076835;28;20388;-75
2023/08/05 02:21:01;;;;;;;6.10;5.50;;;15.00;99.90;;;;;;5068537;28;20499;-75
2023/08/05 02:23:46;;;;;;;13.00;5.83;;;15.00;99.90;;;;;;5078300;28;20510;-75
2023/08/05 02:26:32;;;;;;;6.53;5.53;;;15.10;99.90;;;;;;5092511;28;20413;-75
2023/08/05 02:29:18;;;;;;;19.97;6.50;;;15.00;99.90;;;;;;5078774;28;20421;-75
2023/08/05 02:32:05;;;;;;;15.80;7.77;;;14.90;99.90;;;;;;5070712;28;20492;-75
2023/08/05 02:34:51;;;;;;;13.93;7.60;;;15.00;99.90;;;;;;5083621;28;20574;-75
2023/08/05 02:37:36;;;;;;;9.00;6.57;;;15.00;99.90;;;;;;5075149;28;20464;-75
2023/08/05 02:40:21;;;;;;;9.90;7.13;;;15.10;99.90;;;;;;5073359;28;20418;-74
2023/08/05 02:43:07;;;;;;;17.23;7.60;;;15.20;99.90;;;;;;5085972;28;20477;-75
2023/08/05 02:45:54;;;;;;;31.70;8.70;;;15.20;99.90;;;;;;5070971;28;20447;-75
2023/08/05 02:48:41;;;;;;;42.40;7.63;;;15.20;99.90;;;;;;5074497;28;21005;-74
2023/08/05 02:51:26;;;;;;;11.17;7.40;;;15.20;99.90;;;;;;5074097;28;20965;-75
2023/08/05 02:54:12;;;;;;;15.33;8.27;;;15.20;99.90;;;;;;5072898;28;20451;-75
2023/08/05 02:56:57;;;;;;;15.97;8.00;;;15.30;99.90;;;;;;5074254;28;20484;-75
2023/08/05 02:59:43;;;;;;;16.67;8.50;;;15.30;99.90;;;;;;5085309;28;20421;-75
2023/08/05 03:02:28;;;;;;;23.20;7.77;;;15.40;99.90;;;;;;5084990;28;20461;-74
2023/08/05 03:05:15;;;;;;;34.13;8.30;;;15.40;99.90;;;;;;5085798;28;20598;-74
2023/08/05 03:08:01;;;;;;;20.80;9.37;;;15.40;99.90;;;;;;5055694;28;20405;-74
2023/08/05 03:10:55;;;;;;;10.60;8.27;;;15.20;99.90;;;;;;5066975;28;20458;-74
2023/08/05 03:13:41;;;;;;;11.40;8.10;;;15.20;99.90;;;;;;5073278;28;20451;-75
2023/08/05 03:16:27;;;;;;;11.00;7.70;;;15.30;99.90;;;;;;5082615;28;20516;-75
2023/08/05 03:19:12;;;;;;;9.67;8.17;;;15.30;99.90;;;;;;5059787;28;20460;-75
2023/08/05 03:22:00;;;;;;;9.73;8.40;;;15.30;99.90;;;;;;5054952;28;20795;-74
2023/08/05 03:24:45;;;;;;;39.40;8.17;;;15.40;99.90;;;;;;5059653;28;20525;-75
2023/08/05 03:27:31;;;;;;;9.70;7.83;;;15.40;99.90;;;;;;5072780;28;20823;-74
2023/08/05 03:30:17;;;;;;;10.27;7.67;;;15.30;99.90;;;;;;5069271;28;20420;-75
2023/08/05 03:33:02;;;;;;;7.67;6.43;;;15.20;99.90;;;;;;5083182;28;20468;-75
2023/08/05 03:35:47;;;;;;;7.63;6.27;;;15.30;99.90;;;;;;5079575;28;20422;-75
2023/08/05 03:38:34;;;;;;;6.90;6.10;;;15.20;99.90;;;;;;5074295;28;20411;-75
2023/08/05 03:41:20;;;;;;;8.50;6.80;;;15.10;99.90;;;;;;5072491;28;20455;-75
2023/08/05 03:44:05;;;;;;;13.43;7.53;;;15.00;99.90;;;;;;5072980;28;20466;-75
2023/08/05 03:46:51;;;;;;;9.00;6.67;;;15.10;99.90;;;;;;5066392;28;20387;-75
2023/08/05 03:49:36;;;;;;;7.30;6.00;;;15.20;99.90;;;;;;5081572;28;20959;-75
2023/08/05 03:52:24;;;;;;;8.83;6.80;;;15.20;99.90;;;;;;5074270;28;20468;-75
2023/08/05 03:55:10;;;;;;;9.97;6.53;;;15.20;99.90;;;;;;5072088;28;20465;-75
2023/08/05 03:57:56;;;;;;;12.60;7.13;;;15.20;99.90;;;;;;5071553;28;20478;-75
2023/08/05 04:00:42;;;;;;;8.57;7.00;;;15.00;99.90;;;;;;5069922;28;20611;-75
2023/08/05 04:03:30;;;;;;;10.67;6.87;;;14.80;99.90;;;;;;5072109;28;20426;-75
2023/08/05 04:06:16;;;;;;;8.10;6.90;;;14.70;99.90;;;;;;5082079;28;20428;-75
2023/08/05 04:09:03;;;;;;;11.43;6.77;;;14.70;99.90;;;;;;5071653;28;21000;-75
2023/08/05 04:11:49;;;;;;;9.67;6.03;;;14.70;99.90;;;;;;5059775;28;20939;-75
2023/08/05 04:14:37;;;;;;;11.03;7.40;;;14.70;99.90;;;;;;5072105;28;20458;-75
2023/08/05 04:17:23;;;;;;;11.33;7.63;;;14.70;99.90;;;;;;5073974;28;20555;-75
2023/08/05 04:20:09;;;;;;;22.70;8.00;;;14.70;99.90;;;;;;5068471;28;20593;-75
2023/08/05 04:22:54;;;;;;;144.73;8.07;;;14.70;99.90;;;;;;5070131;28;20616;-75
2023/08/05 04:25:40;;;;;;;230.13;9.13;;;14.50;99.90;;;;;;5088139;28;20466;-75
2023/08/05 04:28:27;;;;;;;153.00;8.00;;;14.40;99.90;;;;;;5099335;28;20425;-75
2023/08/05 04:31:12;;;;;;;50.63;6.17;;;14.40;99.90;;;;;;5075182;28;20444;-77
2023/08/05 04:33:57;;;;;;;22.73;5.13;;;14.40;99.90;;;;;;5080231;28;20430;-74
2023/08/05 04:36:51;;;;;;;5.80;5.20;;;14.40;99.90;;;;;;5082343;28;20434;-75
2023/08/05 04:39:37;;;;;;;6.73;5.77;;;14.40;99.90;;;;;;5068046;28;20451;-75
2023/08/05 04:42:22;;;;;;;6.23;5.33;;;14.40;99.90;;;;;;5081312;28;20476;-75
2023/08/05 04:45:11;;;;;;;7.00;6.30;;;14.60;99.90;;;;;;5076756;28;20459;-75
2023/08/05 04:47:56;;;;;;;7.10;5.20;;;14.60;99.90;;;;;;5073608;28;20398;-75
2023/08/05 04:50:42;;;;;;;6.83;6.13;;;14.70;99.90;;;;;;5071316;28;20507;-75
2023/08/05 04:53:27;;;;;;;9.40;5.97;;;14.70;99.90;;;;;;5081988;22;20969;-83
2023/08/05 04:56:13;;;;;;;6.33;5.53;;;14.70;99.90;;;;;;5077866;28;20940;-84
2023/08/05 04:58:58;;;;;;;7.70;6.17;;;14.80;99.90;;;;;;5070487;28;20389;-84
2023/08/05 05:01:45;;;;;;;9.90;5.77;;;14.90;99.90;;;;;;5089310;28;20402;-84
2023/08/05 05:04:31;;;;;;;9.63;6.03;;;14.90;99.90;;;;;;5078891;28;20496;-84
2023/08/05 05:07:16;;;;;;;14.40;5.87;;;15.00;99.90;;;;;;5099476;28;20401;-84
2023/08/05 05:10:02;;;;;;;9.43;5.90;;;15.10;99.90;;;;;;5089429;28;20470;-83
2023/08/05 05:12:48;;;;;;;8.33;7.53;;;15.20;99.90;;;;;;5077972;28;20466;-83
2023/08/05 05:15:34;;;;;;;9.83;6.30;;;15.10;99.90;;;;;;5095257;28;20473;-84
2023/08/05 05:18:20;;;;;;;7.97;5.50;;;15.20;99.90;;;;;;5082472;28;20920;-84
2023/08/05 05:21:06;;;;;;;6.93;6.23;;;15.20;99.90;;;;;;5091904;28;20458;-83
2023/08/05 05:23:52;;;;;;;5.70;5.00;;;15.20;99.90;;;;;;5095527;28;20499;-84
2023/08/05 05:26:37;;;;;;;27.30;5.37;;;15.20;99.90;;;;;;5078125;28;20432;-84
2023/08/05 05:29:23;;;;;;;17.17;5.07;;;15.10;99.90;;;;;;5072329;28;20470;-84
2023/08/05 05:32:08;;;;;;;13.70;6.10;;;14.90;99.90;;;;;;5073591;28;20509;-84
2023/08/05 05:34:55;;;;;;;10.50;5.60;;;14.90;99.90;;;;;;5076540;28;20416;-83
2023/08/05 05:37:41;;;;;;;78.23;5.77;;;15.00;99.90;;;;;;5087611;28;20453;-84
2023/08/05 05:40:26;;;;;;;59.07;6.10;;;15.00;99.90;;;;;;5083953;28;20438;-82
2023/08/05 05:43:12;;;;;;;24.23;4.63;;;14.90;99.90;;;;;;5087823;28;20417;-85
2023/08/05 05:45:57;;;;;;;29.50;5.10;;;14.90;99.90;;;;;;5072740;28;20470;-83
2023/08/05 05:48:43;;;;;;;6.20;5.20;;;15.00;99.90;;;;;;5079459;28;20453;-83
2023/08/05 05:51:30;;;;;;;6.60;5.50;;;14.90;99.90;;;;;;5096741;28;20411;-84
2023/08/05 05:54:16;;;;;;;6.80;5.53;;;15.00;99.90;;;;;;5096380;28;20865;-83
2023/08/05 05:57:02;;;;;;;8.10;5.60;;;15.10;99.90;;;;;;5079632;28;20995;-84
2023/08/05 05:59:47;;;;;;;6.90;6.20;;;15.20;99.90;;;;;;5075832;28;20447;-85
2023/08/05 06:02:33;;;;;;;6.67;5.37;;;15.20;99.90;;;;;;5077039;28;20836;-84
2023/08/05 06:05:18;;;;;;;7.77;5.90;;;15.20;99.90;;;;;;5070574;28;20516;-83
2023/08/05 06:08:05;;;;;;;7.20;5.97;;;15.40;99.90;;;;;;5073308;28;20446;-83
2023/08/05 06:10:51;;;;;;;7.43;5.30;;;15.40;99.90;;;;;;5090494;28;20825;-85
2023/08/05 06:13:36;;;;;;;7.10;5.70;;;15.40;99.90;;;;;;5099692;28;20768;-84
2023/08/05 06:16:22;;;;;;;6.73;5.87;;;15.50;99.90;;;;;;5094011;28;20439;-84
2023/08/05 06:19:07;;;;;;;8.70;5.47;;;15.60;99.90;;;;;;5079119;28;20464;-87
2023/08/05 06:21:53;;;;;;;6.27;5.37;;;15.60;99.90;;;;;;5073251;28;20423;-83
2023/08/05 06:24:40;;;;;;;7.03;5.27;;;15.70;99.90;;;;;;5091210;28;20422;-82
2023/08/05 06:27:26;;;;;;;8.07;5.87;;;15.80;99.90;;;;;;5058997;28;20378;-86
2023/08/05 06:30:12;;;;;;;7.33;6.20;;;15.90;99.90;;;;;;5071266;28;20420;-86
2023/08/05 06:32:57;;;;;;;7.03;5.60;;;15.90;99.90;;;;;;5099581;28;20398;-86
2023/08/05 06:35:43;;;;;;;7.67;5.73;;;16.00;99.90;;;;;;5089685;28;20491;-83
2023/08/05 06:38:28;;;;;;;6.93;5.57;;;16.10;99.90;;;;;;5069663;28;20940;-84
2023/08/05 06:41:15;;;;;;;6.87;5.97;;;16.20;99.90;;;;;;5085298;28;20421;-86
2023/08/05 06:44:01;;;;;;;6.13;5.53;;;16.30;99.90;;;;;;5089250;28;20424;-86
2023/08/05 06:46:47;;;;;;;6.17;5.47;;;16.40;99.90;;;;;;5084601;28;20516;-83
2023/08/05 06:49:34;;;;;;;7.00;4.93;;;16.50;99.90;;;;;;5091384;28;20445;-86
2023/08/05 06:52:20;;;;;;;11.10;5.10;;;16.60;99.90;;;;;;5074770;28;20531;-86
2023/08/05 06:55:06;;;;;;;8.57;5.23;;;16.70;99.90;;;;;;5060333;28;20474;-85
2023/08/05 06:57:52;;;;;;;7.87;4.60;;;16.70;99.90;;;;;;5083307;28;20450;-86
2023/08/05 07:00:38;;;;;;;4.40;4.00;;;16.70;99.90;;;;;;5097232;28;20454;-85
2023/08/05 07:03:24;;;;;;;14.90;5.53;;;16.70;99.90;;;;;;5091680;28;20533;-84
2023/08/05 07:06:10;;;;;;;8.80;4.23;;;16.90;99.90;;;;;;5064453;28;20488;-85
2023/08/05 07:08:56;;;;;;;7.50;4.23;;;17.00;99.90;;;;;;5083479;28;20951;-83
2023/08/05 07:11:41;;;;;;;4.37;3.73;;;17.00;99.90;;;;;;5060799;28;20399;-87
2023/08/05 07:14:28;;;;;;;5.03;3.80;;;17.20;99.90;;;;;;5065118;28;20429;-85
2023/08/05 07:17:13;;;;;;;6.70;3.30;;;17.20;99.90;;;;;;5079045;28;20852;-83
2023/08/05 07:19:59;;;;;;;6.83;3.70;;;17.30;99.90;;;;;;5067120;28;20455;-84
2023/08/05 07:22:45;;;;;;;9.73;3.33;;;17.40;99.90;;;;;;5081599;28;20452;-83
2023/08/05 07:25:30;;;;;;;4.63;3.50;;;17.50;99.90;;;;;;5092137;28;20503;-85
2023/08/05 07:28:16;;;;;;;6.40;3.50;;;17.50;99.90;;;;;;5100083;28;20425;-85
2023/08/05 07:31:04;;;;;;;3.80;3.03;;;17.60;99.90;;;;;;5098631;28;20528;-85
2023/08/05 07:33:51;;;;;;;3.63;2.77;;;17.60;99.90;;;;;;5097012;28;20480;-83
2023/08/05 07:36:37;;;;;;;5.00;2.90;;;17.70;99.90;;;;;;5096668;28;20532;-83
2023/08/05 07:39:25;;;;;;;4.30;2.73;;;17.70;99.90;;;;;;5081210;28;20552;-84
2023/08/05 07:42:10;;;;;;;4.40;2.60;;;17.80;99.90;;;;;;5100221;28;20454;-84
2023/08/05 07:44:57;;;;;;;2.80;1.90;;;17.80;99.90;;;;;;5097135;28;20531;-84
2023/08/05 07:47:43;;;;;;;4.50;2.40;;;18.00;99.90;;;;;;5100969;28;20905;-84
2023/08/05 07:50:29;;;;;;;4.30;2.70;;;18.00;99.90;;;;;;5084586;28;21060;-85
2023/08/05 07:53:18;;;;;;;3.30;2.03;;;18.20;99.90;;;;;;5093866;28;20532;-84
2023/08/05 07:56:09;;;;;;;5.00;2.70;;;18.20;99.90;;;;;;5063301;28;20491;-85
2023/08/05 07:58:55;;;;;;;4.10;2.57;;;18.10;99.90;;;;;;5077312;28;20492;-85
2023/08/05 08:01:42;;;;;;;4.53;2.37;;;18.30;99.90;;;;;;5074267;28;20431;-85
2023/08/05 08:04:30;;;;;;;7.47;2.93;;;18.40;99.90;;;;;;5077926;28;20493;-85
2023/08/05 08:07:16;;;;;;;5.20;1.80;;;18.50;99.90;;;;;;5094208;28;20434;-85
2023/08/05 08:10:01;;;;;;;3.83;2.10;;;18.60;99.90;;;;;;5085333;28;20574;-84
2023/08/05 08:12:48;;;;;;;3.53;1.90;;;18.70;99.90;;;;;;5068068;28;20463;-85
2023/08/05 08:18:04;;;;;;;4.20;2.27;;;18.80;99.90;;;;;;5084400;28;20465;-73
2023/08/05 08:20:51;;;;;;;3.83;2.03;;;18.70;99.90;;;;;;5084099;28;20942;-73
2023/08/05 08:23:37;;;;;;;3.03;2.43;;;18.70;99.90;;;;;;5074790;28;20792;-73
2023/08/05 08:26:22;;;;;;;5.17;2.00;;;18.90;99.90;;;;;;5066558;28;20425;-73
2023/08/05 08:29:08;;;;;;;8.00;2.13;;;19.00;99.90;;;;;;5045086;28;20580;-74
2023/08/05 08:31:53;;;;;;;4.20;3.00;;;19.10;99.90;;;;;;5053441;28;20943;-74
2023/08/05 08:34:39;;;;;;;5.60;3.80;;;19.20;99.90;;;;;;5060732;28;20445;-74
2023/08/05 08:37:25;;;;;;;5.27;4.03;;;19.30;99.90;;;;;;5055273;28;20551;-74
2023/08/05 08:40:12;;;;;;;6.93;4.40;;;19.20;99.90;;;;;;5066178;28;20473;-73
2023/08/05 08:42:57;;;;;;;5.70;3.70;;;19.10;99.90;;;;;;5071819;28;20394;-74
2023/08/05 08:45:44;;;;;;;7.83;4.03;;;18.90;99.90;;;;;;5044531;28;20438;-74
2023/08/05 08:48:30;;;;;;;7.03;4.30;;;18.80;99.90;;;;;;5058603;28;20434;-74
2023/08/05 08:51:18;;;;;;;5.07;3.83;;;18.80;99.90;;;;;;5049313;28;20451;-74
2023/08/05 08:54:05;;;;;;;4.13;3.40;;;19.00;99.90;;;;;;5052959;28;20446;-74
2023/08/05 08:56:51;;;;;;;5.90;3.77;;;19.10;99.90;;;;;;5050524;28;20532;-74
2023/08/05 08:59:37;;;;;;;6.70;3.50;;;19.30;99.90;;;;;;5039292;28;20531;-74
2023/08/05 09:02:24;;;;;;;4.10;2.90;;;19.40;99.90;;;;;;5046480;28;20440;-74
2023/08/05 09:05:10;;;;;;;3.90;3.20;;;19.50;99.90;;;;;;5060574;28;21055;-74
2023/08/05 09:07:56;;;;;;;4.77;3.00;;;19.60;99.90;;;;;;5030152;28;20479;-73
2023/08/05 09:10:44;;;;;;;8.60;2.80;;;19.60;99.90;;;;;;5053785;28;20860;-74
2023/08/05 09:13:30;;;;;;;7.10;3.03;;;19.50;99.90;;;;;;5070183;28;20958;-73
2023/08/05 09:16:15;;;;;;;4.20;2.50;;;19.60;99.90;;;;;;5065702;28;20467;-74
2023/08/05 09:19:02;;;;;;;4.73;2.93;;;19.70;99.90;;;;;;5048485;28;20814;-74
2023/08/05 09:21:47;;;;;;;3.17;2.30;;;19.80;99.90;;;;;;5046641;28;20970;-74
2023/08/05 09:24:33;;;;;;;4.53;2.00;;;19.90;99.90;;;;;;5057200;28;20445;-74
2023/08/05 09:27:20;;;;;;;3.60;2.77;;;19.90;99.90;;;;;;5067713;28;20991;-74
2023/08/05 09:30:15;;;;;;;3.40;2.30;;;19.90;99.90;;;;;;5065208;28;20439;-74
2023/08/05 09:33:00;;;;;;;4.97;1.87;;;20.00;99.90;;;;;;5071260;28;20433;-74
2023/08/05 09:35:47;;;;;;;3.40;2.03;;;20.10;99.90;;;;;;5059166;28;20511;-74
2023/08/05 09:38:32;;;;;;;4.17;2.33;;;20.10;99.90;;;;;;5042735;28;20454;-73
2023/08/05 09:41:28;;;;;;;3.70;2.20;;;20.10;99.90;;;;;;5045800;28;20513;-74
2023/08/05 09:44:15;;;;;;;2.77;1.80;;;20.00;99.90;;;;;;5044309;28;20468;-73
2023/08/05 09:47:04;;;;;;;5.13;2.07;;;19.90;99.90;;;;;;5047716;28;20490;-73
2023/08/05 09:49:50;;;;;;;5.40;1.50;;;19.90;99.90;;;;;;5044741;28;20475;-73
2023/08/05 09:52:39;;;;;;;5.60;2.40;;;20.00;99.90;;;;;;5043309;28;20994;-74
2023/08/05 09:55:26;;;;;;;4.13;2.20;;;20.10;99.90;;;;;;5051096;28;20467;-73
2023/08/05 09:58:13;;;;;;;3.90;2.33;;;20.10;99.90;;;;;;5043491;28;20445;-73
2023/08/05 10:00:59;;;;;;;4.93;2.67;;;20.30;99.90;;;;;;5057261;28;20494;-73
2023/08/05 10:03:46;;;;;;;4.87;2.50;;;20.30;99.90;;;;;;5052814;28;20497;-73
2023/08/05 10:06:32;;;;;;;3.20;2.10;;;20.50;99.90;;;;;;5058764;28;20484;-73
2023/08/05 10:09:17;;;;;;;5.90;2.07;;;20.60;99.90;;;;;;5047548;28;21053;-73
2023/08/05 10:12:04;;;;;;;5.60;2.30;;;20.80;99.90;;;;;;5045766;28;20553;-73
2023/08/05 10:14:50;;;;;;;3.70;2.03;;;20.80;99.90;;;;;;5048284;28;20957;-73
2023/08/05 10:17:38;;;;;;;3.63;2.00;;;20.70;99.90;;;;;;5043898;28;20595;-73
2023/08/05 10:20:24;;;;;;;5.63;1.77;;;20.80;99.90;;;;;;5051424;28;20473;-73
2023/08/05 10:23:13;;;;;;;3.90;1.83;;;20.90;99.90;;;;;;5052737;28;20578;-73
2023/08/05 10:26:01;;;;;;;4.00;2.80;;;21.10;99.90;;;;;;5055672;28;20878;-73
2023/08/05 10:28:46;;;;;;;4.27;2.60;;;21.30;99.90;;;;;;5042304;28;20398;-73
2023/08/05 10:31:37;;;;;;;6.23;2.60;;;21.20;99.90;;;;;;5061669;28;20438;-73
2023/08/05 10:34:24;;;;;;;5.63;3.07;;;21.30;99.90;;;;;;5046243;28;20503;-73
2023/08/05 10:37:09;;;;;;;4.30;2.63;;;21.10;99.90;;;;;;5050564;28;20497;-73
2023/08/05 10:40:00;;;;;;;3.80;2.83;;;21.30;99.90;;;;;;5044937;28;21018;-73
2023/08/05 10:42:48;;;;;;;6.27;3.47;;;21.50;99.90;;;;;;5055386;28;20450;-73
2023/08/05 10:45:33;;;;;;;4.97;2.73;;;21.50;99.90;;;;;;5049512;28;20561;-73
2023/08/05 10:48:18;;;;;;;6.43;3.40;;;21.60;99.90;;;;;;5048411;28;20950;-72
2023/08/05 10:51:08;;;;;;;5.20;3.40;;;21.60;99.90;;;;;;5043729;28;20453;-73
2023/08/05 10:54:00;;;;;;;6.87;3.90;;;21.50;99.90;;;;;;5049827;28;20524;-72
2023/08/05 10:56:47;;;;;;;4.97;3.90;;;21.40;99.90;;;;;;5063750;28;20516;-73
2023/08/05 10:59:57;;;;;;;5.53;3.60;;;21.40;99.90;;;;;;5038846;28;20450;-74
2023/08/05 11:02:42;;;;;;;6.37;4.13;;;21.40;99.90;;;;;;5063384;28;20429;-73
2023/08/05 11:05:29;;;;;;;9.30;3.80;;;21.40;99.90;;;;;;5045769;28;20942;-73
2023/08/05 11:08:20;;;;;;;11.00;4.70;;;21.50;99.90;;;;;;5046397;28;20533;-74
2023/08/05 11:11:06;;;;;;;6.73;4.47;;;21.50;99.90;;;;;;5044904;28;20523;-74
2023/08/05 11:13:53;;;;;;;7.40;4.70;;;21.60;99.90;;;;;;5044826;28;20441;-73
2023/08/05 11:16:45;;;;;;;9.90;4.60;;;21.80;99.90;;;;;;5049954;28;20423;-73
2023/08/05 11:19:50;;;;;;;10.33;5.03;;;21.90;99.90;;;;;;5053620;28;20478;-73
2023/08/05 11:22:36;;;;;;;10.43;5.60;;;21.90;99.90;;;;;;5044318;28;21019;-73
2023/08/05 11:25:23;;;;;;;7.40;4.47;;;21.90;99.90;;;;;;5052389;28;20608;-74
2023/08/05 11:28:09;;;;;;;7.90;5.13;;;21.90;99.90;;;;;;5047276;28;20612;-74
2023/08/05 11:30:55;;;;;;;5.00;3.87;;;21.90;98.30;;;;;;5055840;28;20467;-73
2023/08/05 11:33:47;;;;;;;5.13;4.10;;;22.00;99.90;;;;;;5048531;28;20837;-73
2023/08/05 11:36:33;;;;;;;7.70;3.73;;;22.20;98.50;;;;;;5055382;28;21296;-73
2023/08/05 11:39:23;;;;;;;4.03;3.33;;;22.50;99.90;;;;;;5044429;28;20889;-74
2023/08/05 11:42:10;;;;;;;4.70;3.63;;;22.50;88.90;;;;;;5045187;28;20425;-73
2023/08/05 11:44:55;;;;;;;5.00;3.30;;;22.30;90.10;;;;;;5052659;28;20466;-72
2023/08/05 11:47:42;;;;;;;6.93;3.33;;;22.30;94.80;;;;;;5058576;28;20433;-74
2023/08/05 11:50:34;;;;;;;5.67;3.17;;;22.40;97.60;;;;;;5049646;28;20439;-74
2023/08/05 11:53:20;;;;;;;4.77;3.70;;;22.60;99.90;;;;;;5049580;28;20954;-73
2023/08/05 11:56:06;;;;;;;5.00;3.43;;;22.50;96.20;;;;;;5048454;28;20456;-73
2023/08/05 11:58:53;;;;;;;8.07;3.17;;;22.40;92.70;;;;;;5066003;28;20470;-73
2023/08/05 12:01:41;;;;;;;5.23;3.20;;;22.30;95.50;;;;;;5060792;28;20523;-74
2023/08/05 12:04:26;;;;;;;6.90;2.90;;;22.50;99.90;;;;;;5056442;28;20471;-74
2023/08/05 12:07:13;;;;;;;5.83;3.07;;;22.60;98.70;;;;;;5052927;28;20953;-74
2023/08/05 12:10:07;;;;;;;4.30;2.70;;;22.40;85.10;;;;;;5049473;28;20505;-75
2023/08/05 12:12:52;;;;;;;4.57;2.73;;;22.10;89.90;;;;;;5053655;28;20447;-74
2023/08/05 12:15:39;;;;;;;3.70;2.60;;;21.90;88.80;;;;;;5045523;28;20579;-75
2023/08/05 12:18:25;;;;;;;10.40;2.20;;;21.90;93.00;;;;;;5055807;28;20468;-76
2023/08/05 12:21:10;;;;;;;4.90;2.60;;;22.00;85.00;;;;;;5059103;28;20444;-72
2023/08/05 12:23:56;;;;;;;3.90;2.60;;;22.10;83.70;;;;;;5050190;28;20466;-76
2023/08/05 12:26:41;;;;;;;5.77;2.63;;;22.30;89.20;;;;;;5045603;28;21009;-77
2023/08/05 12:29:27;;;;;;;3.90;2.10;;;22.50;71.70;;;;;;5051571;28;20901;-76
2023/08/05 12:32:14;;;;;;;3.60;2.20;;;22.60;61.70;;;;;;5050174;28;20548;-76
2023/08/05 12:34:59;;;;;;;4.27;2.23;;;22.70;71.90;;;;;;5045161;28;20885;-77
2023/08/05 12:37:45;;;;;;;8.50;3.23;;;22.70;64.20;;;;;;5046267;28;20494;-77
2023/08/05 12:40:31;;;;;;;3.30;2.60;;;22.80;73.10;;;;;;5041244;28;20513;-76
2023/08/05 12:43:16;;;;;;;19.40;2.97;;;22.70;69.50;;;;;;5037626;28;20450;-77
2023/08/05 12:46:02;;;;;;;5.63;2.33;;;22.70;73.70;;;;;;5045327;28;20426;-76
2023/08/05 12:48:48;;;;;;;13.10;3.27;;;22.90;78.20;;;;;;5046482;28;20436;-76
2023/08/05 12:51:34;;;;;;;5.73;2.43;;;22.90;70.80;;;;;;5052304;28;20574;-77
2023/08/05 12:54:20;;;;;;;4.10;1.93;;;22.80;67.00;;;;;;5043656;28;20471;-77
2023/08/05 12:57:05;;;;;;;4.23;1.80;;;22.80;71.80;;;;;;5047545;28;20459;-76
2023/08/05 12:59:51;;;;;;;3.80;2.40;;;22.90;72.20;;;;;;5051577;28;20686;-76
2023/08/05 13:02:36;;;;;;;5.20;2.90;;;22.70;72.50;;;;;;5058828;28;20756;-74
2023/08/05 13:05:24;;;;;;;4.20;2.20;;;22.50;71.70;;;;;;5060239;28;21079;-75
2023/08/05 13:08:11;;;;;;;4.67;2.63;;;22.40;80.30;;;;;;5039147;28;20795;-76
2023/08/05 13:10:56;;;;;;;3.70;2.43;;;22.40;82.90;;;;;;5042185;28;21078;-75
2023/08/05 13:13:42;;;;;;;5.43;2.57;;;22.50;80.70;;;;;;5043349;28;20529;-75
2023/08/05 13:16:28;;;;;;;4.20;3.03;;;22.40;83.90;;;;;;5054751;28;20500;-75
2023/08/05 13:19:15;;;;;;;4.37;3.23;;;22.40;86.20;;;;;;5049756;28;20463;-75
2023/08/05 13:22:01;;;;;;;5.27;2.80;;;22.20;80.20;;;;;;5047618;28;20443;-75
2023/08/05 13:24:47;;;;;;;3.67;2.60;;;22.00;94.10;;;;;;5058178;28;20832;-76
2023/08/05 13:27:33;;;;;;;45.67;41.30;;;21.90;99.30;;;;;;5049823;28;20475;-75
2023/08/05 13:30:20;;;;;;;5.83;3.37;;;21.60;99.90;;;;;;5040948;28;20551;-75
2023/08/05 13:33:05;;;;;;;6.30;3.70;;;21.10;99.90;;;;;;5051047;28;20460;-75
2023/08/05 13:35:51;;;;;;;9.20;3.20;;;20.60;99.90;;;;;;5044032;28;20451;-74
2023/08/05 13:38:38;;;;;;;4.20;3.20;;;20.40;99.90;;;;;;5047795;28;20463;-75
2023/08/05 13:41:23;;;;;;;4.27;3.47;;;20.40;99.90;;;;;;5058781;28;20635;-75
2023/08/05 13:44:09;;;;;;;5.20;3.53;;;20.30;99.90;;;;;;5043279;28;20482;-75
2023/08/05 13:46:55;;;;;;;8.07;3.83;;;20.10;99.90;;;;;;5047379;28;20444;-75
2023/08/05 13:49:40;;;;;;;4.13;3.60;;;20.10;99.90;;;;;;5043870;28;20513;-75
2023/08/05 13:52:26;;;;;;;8.50;3.40;;;19.90;99.90;;;;;;5056556;28;20519;-75
2023/08/05 13:55:14;;;;;;;4.57;3.47;;;19.90;99.90;;;;;;5050179;28;20897;-75
2023/08/05 13:57:59;;;;;;;8.23;4.13;;;20.10;99.90;;;;;;5043759;28;20440;-74
2023/08/05 14:00:45;;;;;;;5.40;3.60;;;20.20;99.90;;;;;;5048583;28;20829;-74
2023/08/05 14:03:30;;;;;;;6.23;4.13;;;20.40;99.90;;;;;;5051853;28;20443;-76
2023/08/05 14:06:16;;;;;;;9.50;4.13;;;20.50;99.90;;;;;;5052551;28;20470;-75
2023/08/05 14:09:05;;;;;;;6.33;3.13;;;20.70;99.90;;;;;;5048844;28;20969;-76
2023/08/05 14:11:52;;;;;;;3.77;2.60;;;21.20;99.90;;;;;;5046784;28;20418;-74
2023/08/05 14:14:37;;;;;;;3.97;2.83;;;21.80;99.90;;;;;;5047806;28;21086;-75
2023/08/05 14:17:23;;;;;;;9.37;4.30;;;22.30;99.90;;;;;;5048692;28;20466;-76
2023/08/05 14:20:09;;;;;;;6.60;3.43;;;22.80;99.90;;;;;;5042915;28;20524;-75
2023/08/05 14:22:54;;;;;;;7.73;3.20;;;23.20;99.90;;;;;;5061757;28;21010;-74
2023/08/05 14:25:41;;;;;;;5.63;3.60;;;23.50;99.90;;;;;;5054049;28;20472;-74
2023/08/05 14:28:29;;;;;;;6.27;3.10;;;23.70;99.90;;;;;;5044189;28;20451;-75